Scout — SCOUT — position and weather

sailwx.info

Track history (hours):
 
Tides and Currents Weather Stations Pressure Air Temp Water Temp Dewpoint Dewpoint Depression Visibility Wind Speed Wind Dir Waves Ship Positions

Scout

Last reported at 2017-Dec-08 22:31 UTC. Time now 2018-Feb-19 02:03 UTC.
Position N 32°42' W 117°30'.
Warning: this ship's position is months out of date.

Length 13 m.

Type: Pleasure craft. MMSI: 316017359.

Date/timePositionNaut miles runAvg speedWind from/ knotsBaromVisibWave heightAir tempDewpointWater temp
2017-Dec-08 22:31N 32°42' W 117°30'1 2.3
2017-Dec-08 22:01N 32°41' W 117°30'3 5.8
2017-Dec-08 21:30N 32°44' W 117°29'1 0.9
2017-Dec-08 20:30N 32°43' W 117°29'2 4.1
2017-Dec-08 20:01N 32°41' W 117°30'0 0.8
2017-Dec-08 19:30N 32°41' W 117°29'510.6
2017-Dec-08 19:00N 32°47' W 117°29'3 6.5
2017-Dec-08 18:30N 32°47' W 117°33'2 3.8
2017-Dec-08 18:00N 32°46' W 117°31'815.7
2017-Dec-08 17:29N 32°40' W 117°24'3 0.1
2017-Dec-07 19:30N 32°42' W 117°27'2 2.2
2017-Dec-07 18:31N 32°42' W 117°30'2 0.1
2017-Dec-06 22:01N 32°43' W 117°28'  
Track history (hours):
 
Tides and Currents Weather Stations Pressure Air Temp Water Temp Dewpoint Dewpoint Depression Visibility Wind Speed Wind Dir Waves Ship Positions

Scout

Last reported at 2017-Dec-08 22:31 UTC. Time now 2018-Feb-19 02:03 UTC.
Position N 32°42' W 117°30'.
Warning: this ship's position is months out of date.

Length 13 m.

Type: Pleasure craft. MMSI: 316017359.

Date/timePositionNaut miles runAvg speedWind from/ knotsBaromVisibWave heightAir tempDewpointWater temp
2017-Dec-08 22:31N 32°42' W 117°30'1 2.3
2017-Dec-08 22:01N 32°41' W 117°30'3 5.8
2017-Dec-08 21:30N 32°44' W 117°29'1 0.9
2017-Dec-08 20:30N 32°43' W 117°29'2 4.1
2017-Dec-08 20:01N 32°41' W 117°30'0 0.8
2017-Dec-08 19:30N 32°41' W 117°29'510.6
2017-Dec-08 19:00N 32°47' W 117°29'3 6.5
2017-Dec-08 18:30N 32°47' W 117°33'2 3.8
2017-Dec-08 18:00N 32°46' W 117°31'815.7
2017-Dec-08 17:29N 32°40' W 117°24'3 0.1
2017-Dec-07 19:30N 32°42' W 117°27'2 2.2
2017-Dec-07 18:31N 32°42' W 117°30'2 0.1
2017-Dec-06 22:01N 32°43' W 117°28'  

Dump ship's entire track history